Time;durP1;ratioP1;P1;durP2;ratioP2;P2;SDS_P1;SDS_P2;PMS_P1;PMS_P2;Temp;Humidity;BMP_temperature;BMP_pressure;BME280_temperature;BME280_humidity;BME280_pressure;Samples;Min_cycle;Max_cycle;Signal;HPM_P1;HPM_P2
2021/12/07 00:01:19;;;;;;;47.55;27.60;;;;;;;-0.42;86.08;95986.24;1800870;79;20960;-81
2021/12/07 00:03:45;;;;;;;45.67;28.00;;;;;;;-0.41;85.92;95991.69;1801200;79;21426;-82
2021/12/07 00:06:11;;;;;;;50.43;28.20;;;;;;;-0.42;85.88;95992.16;1786201;79;21006;-81
2021/12/07 00:08:37;;;;;;;50.58;28.12;;;;;;;-0.39;85.89;95993.17;1787604;78;20988;-81
2021/12/07 00:11:03;;;;;;;43.83;25.82;;;;;;;-0.38;86.06;96000.37;1783047;79;21011;-81
2021/12/07 00:13:33;;;;;;;46.13;27.50;;;;;;;-0.37;86.10;95997.69;1783584;79;20995;-81
2021/12/07 00:15:57;;;;;;;46.50;27.95;;;;;;;-0.35;86.07;95986.08;1795730;79;21382;-81
2021/12/07 00:18:23;;;;;;;47.45;27.95;;;;;;;-0.31;86.09;95985.72;1800256;78;20967;-81
2021/12/07 00:20:48;;;;;;;49.03;27.80;;;;;;;-0.27;86.08;95982.45;1797257;79;21710;-81
2021/12/07 00:23:16;;;;;;;51.40;28.60;;;;;;;-0.25;86.14;95984.87;1796106;79;20979;-82
2021/12/07 00:25:42;;;;;;;52.23;28.02;;;;;;;-0.24;85.98;95988.58;1802031;78;21015;-81
2021/12/07 00:28:08;;;;;;;49.18;29.18;;;;;;;-0.23;86.09;95988.11;1801477;79;21078;-81
2021/12/07 00:30:35;;;;;;;49.35;29.45;;;;;;;-0.26;85.94;95994.28;1784468;78;20963;-81
2021/12/07 00:33:16;;;;;;;52.10;31.10;;;;;;;-0.29;85.81;95998.36;1801279;79;21015;-81
2021/12/07 00:35:38;;;;;;;51.13;29.82;;;;;;;-0.28;85.93;95999.98;1790768;78;21370;-81
2021/12/07 00:38:15;;;;;;;53.78;32.13;;;;;;;-0.28;86.06;96003.00;1795834;79;21078;-81
2021/12/07 00:40:41;;;;;;;54.58;30.72;;;;;;;-0.27;86.13;95999.52;1796924;79;21378;-81
2021/12/07 00:43:07;;;;;;;51.60;29.45;;;;;;;-0.25;86.06;95993.81;1788311;79;21003;-81
2021/12/07 00:45:34;;;;;;;53.68;31.05;;;;;;;-0.26;85.99;95990.45;1788232;79;21367;-82
2021/12/07 00:48:01;;;;;;;51.30;30.25;;;;;;;-0.26;85.97;95985.81;1798774;79;21061;-81
2021/12/07 00:50:27;;;;;;;54.15;30.65;;;;;;;-0.28;85.99;95992.32;1793534;79;20970;-81
2021/12/07 00:52:53;;;;;;;51.42;29.85;;;;;;;-0.33;85.92;95986.75;1791730;79;20984;-81
2021/12/07 00:55:24;;;;;;;48.13;28.90;;;;;;;-0.40;85.85;95990.75;1794352;79;21397;-81
2021/12/07 00:57:53;;;;;;;51.80;28.35;;;;;;;-0.47;85.94;95991.73;1795810;79;21103;-81
2021/12/07 01:00:18;;;;;;;54.10;31.55;;;;;;;-0.47;86.10;95992.19;1787396;78;21022;-81
2021/12/07 01:02:43;;;;;;;54.20;32.15;;;;;;;-0.46;86.37;95989.98;1785622;79;21122;-82
2021/12/07 01:05:16;;;;;;;54.50;31.25;;;;;;;-0.47;86.32;95984.06;1795879;78;21065;-82
2021/12/07 01:26:36;;;;;;;51.08;30.02;;;;;;;-0.42;86.45;95977.31;1803672;79;21048;-81
2021/12/07 01:29:02;;;;;;;52.35;30.88;;;;;;;-0.39;86.40;95971.48;1785963;78;21055;-81
2021/12/07 01:31:51;;;;;;;51.95;30.23;;;;;;;-0.39;86.37;95977.86;1787242;79;21015;-81
2021/12/07 01:37:11;;;;;;;50.08;30.15;;;;;;;-0.50;86.08;95984.29;1795325;79;21449;-81
2021/12/07 02:00:24;;;;;;;37.65;23.67;;;;;;;-0.67;85.74;95960.13;1793344;79;21351;-82
2021/12/07 02:02:50;;;;;;;34.03;23.98;;;;;;;-0.70;85.65;95956.55;1805369;79;21095;-82
2021/12/07 02:05:16;;;;;;;37.78;23.77;;;;;;;-0.70;85.63;95948.89;1793895;79;21090;-82
2021/12/07 02:07:41;;;;;;;38.90;24.60;;;;;;;-0.72;85.51;95948.21;1793569;79;20972;-82
2021/12/07 02:10:14;;;;;;;39.13;25.30;;;;;;;-0.71;85.60;95938.34;1792323;79;20944;-82
2021/12/07 02:12:45;;;;;;;41.15;25.05;;;;;;;-0.74;85.59;95935.24;1760427;81;21000;-82
2021/12/07 02:15:15;;;;;;;43.35;25.10;;;;;;;-0.74;85.66;95930.95;1804983;79;21362;-81
2021/12/07 02:17:41;;;;;;;38.98;25.05;;;;;;;-0.72;85.85;95929.08;1796664;79;20996;-82
2021/12/07 02:20:08;;;;;;;42.67;26.60;;;;;;;-0.68;85.84;95928.36;1790646;79;21030;-82
2021/12/07 02:22:34;;;;;;;43.00;26.42;;;;;;;-0.66;85.81;95936.23;1800661;79;21060;-82
2021/12/07 02:25:03;;;;;;;43.83;27.05;;;;;;;-0.68;85.79;95938.09;1792723;79;20999;-82
2021/12/07 02:27:29;;;;;;;40.40;26.40;;;;;;;-0.65;85.88;95934.52;1783647;79;21053;-82
2021/12/07 02:29:54;;;;;;;47.35;30.10;;;;;;;-0.66;85.81;95934.14;1798749;79;20976;-81
2021/12/07 02:32:20;;;;;;;44.98;27.87;;;;;;;-0.67;85.74;95939.71;1793882;79;21322;-82
2021/12/07 02:34:53;;;;;;;41.15;26.27;;;;;;;-0.68;85.74;95943.67;1806486;79;21098;-81
2021/12/07 02:37:13;;;;;;;41.23;28.10;;;;;;;-0.68;85.67;95943.67;1746121;80;21115;-82
2021/12/07 02:39:40;;;;;;;42.35;27.50;;;;;;;-0.71;85.65;95940.90;1751814;81;21058;-82
2021/12/07 02:42:06;;;;;;;45.63;28.23;;;;;;;-0.71;85.69;95943.92;1788497;79;21158;-81
2021/12/07 02:44:33;;;;;;;41.35;28.15;;;;;;;-0.67;85.80;95935.08;1785940;79;21067;-82
2021/12/07 02:46:59;;;;;;;41.25;28.67;;;;;;;-0.64;85.75;95935.66;1793620;79;21058;-82
2021/12/07 02:49:24;;;;;;;44.45;28.57;;;;;;;-0.64;85.51;95937.41;1786033;79;20948;-82
2021/12/07 02:51:50;;;;;;;51.33;31.23;;;;;;;-0.68;85.36;95943.67;1757253;79;21458;-82
2021/12/07 02:54:17;;;;;;;44.42;28.10;;;;;;;-0.71;85.45;95940.90;1795247;78;20994;-82
2021/12/07 02:56:43;;;;;;;50.38;29.92;;;;;;;-0.69;85.59;95945.87;1797658;78;21058;-82
2021/12/07 02:59:09;;;;;;;46.40;29.57;;;;;;;-0.69;85.64;95936.48;1801633;79;21024;-82
2021/12/07 03:01:42;;;;;;;44.65;29.75;;;;;;;-0.63;85.87;95933.92;1800350;79;22023;-82
2021/12/07 03:06:51;;;;;;;47.60;29.57;;;;;;;-0.58;85.58;95938.17;1781420;79;21485;-82
2021/12/07 03:28:12;;;;;;;43.73;26.40;;;;;;;-0.68;85.27;95944.47;1794261;79;21027;-81
2021/12/07 03:30:38;;;;;;;43.98;27.77;;;;;;;-0.69;85.23;95949.23;1793813;79;21394;-81
2021/12/07 03:33:04;;;;;;;45.88;27.50;;;;;;;-0.66;85.45;95949.45;1792717;79;20979;-81
2021/12/07 03:35:30;;;;;;;46.98;29.60;;;;;;;-0.66;85.38;95952.00;1793487;79;21079;-81
2021/12/07 03:37:56;;;;;;;47.65;30.45;;;;;;;-0.68;85.36;95939.37;1784898;79;20968;-80
2021/12/07 03:40:22;;;;;;;47.53;29.75;;;;;;;-0.57;85.41;95963.23;1800286;79;21000;-81
2021/12/07 03:42:47;;;;;;;46.50;29.10;;;;;;;-0.56;85.27;95959.27;1785892;79;20995;-81
2021/12/07 03:45:13;;;;;;;47.00;29.77;;;;;;;-0.56;85.22;95968.20;1792387;79;20985;-81
2021/12/07 03:47:39;;;;;;;48.40;30.50;;;;;;;-0.54;85.16;95968.08;1778745;79;20992;-80
2021/12/07 03:50:06;;;;;;;48.78;31.30;;;;;;;-0.54;85.20;95966.80;1786725;79;21039;-81
2021/12/07 03:52:32;;;;;;;47.67;28.50;;;;;;;-0.53;85.35;95967.95;1792224;79;21007;-80
2021/12/07 03:54:57;;;;;;;48.28;30.92;;;;;;;-0.51;85.29;95967.36;1786601;79;21061;-81
2021/12/07 03:57:23;;;;;;;49.35;29.25;;;;;;;-0.47;85.33;95964.12;1758220;79;21092;-80
2021/12/07 03:59:49;;;;;;;53.73;32.55;;;;;;;-0.47;85.27;95966.67;1780452;79;21477;-81
2021/12/07 04:02:15;;;;;;;49.50;30.75;;;;;;;-0.45;85.25;95971.18;1796075;78;21408;-81
2021/12/07 04:04:41;;;;;;;53.25;30.72;;;;;;;-0.42;85.37;95976.03;1788853;79;20968;-81
2021/12/07 04:07:06;;;;;;;52.85;32.70;;;;;;;-0.42;85.36;95973.02;1796668;79;20975;-81
2021/12/07 04:09:32;;;;;;;53.28;32.63;;;;;;;-0.48;85.25;95976.07;1788338;79;20995;-80
2021/12/07 04:11:59;;;;;;;55.52;32.35;;;;;;;-0.50;85.38;95967.70;1786297;79;21317;-81
2021/12/07 04:14:25;;;;;;;54.55;32.08;;;;;;;-0.51;85.34;95970.38;1785862;79;21062;-80
2021/12/07 04:16:51;;;;;;;50.28;33.78;;;;;;;-0.51;85.49;95975.02;1804747;79;21016;-81
2021/12/07 04:19:17;;;;;;;54.75;31.90;;;;;;;-0.52;85.54;95977.70;1784393;79;20999;-81
2021/12/07 04:21:43;;;;;;;56.98;31.10;;;;;;;-0.53;85.58;95985.81;1794106;79;21322;-81
2021/12/07 04:24:09;;;;;;;48.83;31.23;;;;;;;-0.51;85.68;95983.14;1789535;79;20979;-81
2021/12/07 04:26:37;;;;;;;61.05;35.70;;;;;;;-0.51;85.59;95984.41;1796031;79;20999;-81
2021/12/07 04:29:03;;;;;;;55.38;31.45;;;;;;;-0.53;85.58;95985.81;1787975;79;21019;-81
2021/12/07 04:31:29;;;;;;;62.65;33.65;;;;;;;-0.55;85.57;95986.88;1794400;79;20990;-81
2021/12/07 04:33:55;;;;;;;52.88;31.27;;;;;;;-0.57;85.69;95979.34;1796170;79;21047;-81
2021/12/07 04:36:21;;;;;;;57.43;32.23;;;;;;;-0.61;85.59;95981.34;1799793;78;21403;-81
2021/12/07 04:38:47;;;;;;;59.35;33.73;;;;;;;-0.61;85.83;95983.89;1805638;79;20984;-80
2021/12/07 04:41:12;;;;;;;57.33;34.00;;;;;;;-0.59;85.89;95990.61;1799422;79;21058;-81
2021/12/07 04:43:38;;;;;;;49.05;28.70;;;;;;;-0.59;85.94;95987.59;1796863;79;21114;-81
2021/12/07 04:46:19;;;;;;;72.00;46.23;;;;;;;-0.56;86.02;95989.09;1793422;79;21074;-81
2021/12/07 04:59:29;;;;;;;50.80;30.52;;;;;;;-0.51;86.14;95983.14;1804675;78;21482;-81
2021/12/07 05:01:55;;;;;;;47.95;27.30;;;;;;;-0.51;86.07;95985.22;1799224;78;21011;-81
2021/12/07 05:04:26;;;;;;;51.30;31.95;;;;;;;-0.54;85.89;95982.92;1781583;79;21095;-81
2021/12/07 05:06:53;;;;;;;55.30;31.10;;;;;;;-0.55;85.92;95981.77;1794281;79;22139;-81
2021/12/07 05:16:53;;;;;;;50.65;30.17;;;;;;;-0.71;85.71;95972.80;1749212;81;21419;-81
2021/12/07 05:24:55;;;;;;;53.45;29.15;;;;;;;-0.72;86.03;95974.19;1758951;81;21044;-81
2021/12/07 05:37:56;;;;;;;48.30;29.10;;;;;;;-0.89;86.19;95972.17;1803260;79;21015;-81
2021/12/07 05:40:28;;;;;;;53.90;31.20;;;;;;;-0.97;86.17;95967.69;1767204;80;21426;-81
2021/12/07 05:42:54;;;;;;;50.05;30.10;;;;;;;-0.97;86.32;95963.40;1734595;82;21071;-81
2021/12/07 05:45:30;;;;;;;56.75;32.10;;;;;;;-0.94;86.57;95954.69;1733765;82;21004;-81
2021/12/07 05:47:55;;;;;;;52.67;29.77;;;;;;;-0.91;86.63;95951.89;1726955;82;21447;-81
2021/12/07 05:50:24;;;;;;;48.30;26.87;;;;;;;-0.87;86.59;95953.73;1734394;82;21067;-81
2021/12/07 05:52:50;;;;;;;53.98;30.88;;;;;;;-0.92;86.77;95953.63;1737993;82;21427;-81
2021/12/07 05:55:16;;;;;;;53.45;29.98;;;;;;;-0.95;86.55;95955.63;1741558;82;21118;-81
2021/12/07 05:57:41;;;;;;;49.95;27.50;;;;;;;-0.98;86.50;95955.84;1736700;82;21034;-81
2021/12/07 06:00:12;;;;;;;41.58;21.45;;;;;;;-0.97;86.64;95955.75;1745154;82;21067;-81
2021/12/07 06:02:38;;;;;;;53.33;29.15;;;;;;;-0.99;86.66;95955.03;1761091;80;21003;-81
2021/12/07 06:05:06;;;;;;;47.23;26.52;;;;;;;-1.02;86.57;95950.18;1761973;80;21019;-81
2021/12/07 06:07:31;;;;;;;53.60;28.02;;;;;;;-1.08;86.39;95960.06;1759753;81;21437;-81
2021/12/07 06:09:57;;;;;;;49.48;25.88;;;;;;;-1.11;86.52;95961.59;1760478;80;20981;-81
2021/12/07 06:12:23;;;;;;;50.30;27.40;;;;;;;-1.17;86.48;95962.86;1769801;80;21084;-81
2021/12/07 06:14:49;;;;;;;46.48;27.22;;;;;;;-1.14;86.71;95975.82;1765499;80;21091;-81
2021/12/07 06:17:14;;;;;;;34.00;19.48;;;;;;;-1.10;86.89;95975.48;1770385;81;21076;-81
2021/12/07 06:19:40;;;;;;;44.08;25.97;;;;;;;-1.05;86.78;95981.02;1773685;80;20986;-81
2021/12/07 06:22:08;;;;;;;45.45;26.35;;;;;;;-1.08;86.65;95981.27;1770209;80;21417;-81
2021/12/07 06:24:33;;;;;;;39.42;24.40;;;;;;;-1.07;86.70;95985.44;1771244;80;20999;-81
2021/12/07 06:26:59;;;;;;;38.88;22.35;;;;;;;-1.08;86.28;95980.46;1748627;79;21022;-81
2021/12/07 06:29:25;;;;;;;38.70;25.48;;;;;;;-1.09;86.26;95983.48;1774857;80;21423;-81
2021/12/07 06:31:53;;;;;;;37.50;22.80;;;;;;;-1.15;85.94;95985.67;1770183;80;21088;-81
2021/12/07 06:34:20;;;;;;;38.23;24.57;;;;;;;-1.14;86.10;95983.47;1765606;80;20995;-81
2021/12/07 06:36:46;;;;;;;41.08;24.18;;;;;;;-1.11;86.21;95981.52;1784313;79;20987;-81
2021/12/07 06:39:12;;;;;;;42.85;25.57;;;;;;;-1.06;86.36;95990.07;1786485;79;21015;-81
2021/12/07 06:41:38;;;;;;;42.88;25.92;;;;;;;-1.03;86.23;95989.36;1796128;79;21008;-81
2021/12/07 06:44:04;;;;;;;38.45;25.55;;;;;;;-0.99;86.21;95993.75;1788260;79;21019;-81
2021/12/07 06:46:30;;;;;;;43.05;26.87;;;;;;;-0.94;86.49;95995.50;1809223;79;21406;-81
2021/12/07 06:48:56;;;;;;;43.40;28.55;;;;;;;-0.91;86.21;95997.80;1796019;78;21022;-81
2021/12/07 06:51:22;;;;;;;47.83;30.10;;;;;;;-0.97;85.96;95999.10;1796217;79;21011;-81
2021/12/07 06:53:47;;;;;;;47.17;29.27;;;;;;;-1.00;86.10;95998.51;1786696;79;21026;-81
2021/12/07 06:56:13;;;;;;;48.30;29.42;;;;;;;-0.94;86.23;96001.88;1800767;79;21096;-81
2021/12/07 06:58:39;;;;;;;45.50;27.95;;;;;;;-0.88;86.24;96006.95;1799504;79;21399;-81
2021/12/07 07:01:08;;;;;;;49.50;30.27;;;;;;;-0.86;86.24;96008.91;1788187;79;21048;-80
2021/12/07 07:03:34;;;;;;;54.42;31.55;;;;;;;-0.88;85.94;96016.68;1788836;79;21130;-81
2021/12/07 07:06:01;;;;;;;52.08;28.40;;;;;;;-0.89;85.94;96017.62;1797301;79;21075;-81
2021/12/07 07:08:27;;;;;;;49.48;29.72;;;;;;;-0.86;86.01;96018.64;1798427;78;21453;-81
2021/12/07 07:10:53;;;;;;;50.08;29.98;;;;;;;-0.81;86.11;96023.41;1800791;79;21337;-81
2021/12/07 07:13:18;;;;;;;49.93;27.42;;;;;;;-0.77;86.07;96021.77;1795116;79;21043;-81
2021/12/07 07:15:44;;;;;;;51.45;29.65;;;;;;;-0.74;85.93;96030.91;1793806;79;21450;-81
2021/12/07 07:18:11;;;;;;;51.37;27.13;;;;;;;-0.72;85.94;96029.05;1797635;78;21024;-81
2021/12/07 07:20:37;;;;;;;52.10;28.30;;;;;;;-0.73;85.80;96024.88;1789867;79;20976;-81
2021/12/07 07:23:03;;;;;;;55.03;30.30;;;;;;;-0.73;85.87;96030.78;1793127;79;21398;-81
2021/12/07 07:25:30;;;;;;;55.23;29.45;;;;;;;-0.68;86.07;96036.33;1787529;79;21064;-81
2021/12/07 07:27:57;;;;;;;59.40;30.15;;;;;;;-0.65;86.04;96029.73;1798464;79;21383;-81
2021/12/07 07:30:23;;;;;;;50.92;29.40;;;;;;;-0.71;85.65;96034.48;1780276;79;21102;-81
2021/12/07 07:32:48;;;;;;;51.50;29.82;;;;;;;-0.70;85.89;96032.28;1795096;78;21067;-81
2021/12/07 07:35:15;;;;;;;50.65;29.35;;;;;;;-0.75;85.75;96031.38;1793025;79;21439;-81
2021/12/07 07:37:40;;;;;;;56.55;30.72;;;;;;;-0.72;85.90;96029.85;1792835;79;21095;-81
2021/12/07 07:40:12;;;;;;;57.48;30.77;;;;;;;-0.71;85.99;96030.20;1798193;79;21123;-81
2021/12/07 07:42:37;;;;;;;54.70;31.65;;;;;;;-0.69;85.88;96028.33;1798010;79;20957;-81
2021/12/07 07:45:05;;;;;;;51.80;31.25;;;;;;;-0.74;85.78;96031.72;1792585;79;21372;-81
2021/12/07 07:47:31;;;;;;;55.55;33.70;;;;;;;-0.80;85.71;96030.13;1797066;79;21070;-81
2021/12/07 07:49:57;;;;;;;57.60;30.75;;;;;;;-0.82;85.90;96028.14;1795695;79;21051;-81
2021/12/07 07:52:23;;;;;;;55.48;31.73;;;;;;;-0.81;86.12;96037.44;1804785;79;21092;-81
2021/12/07 07:54:49;;;;;;;54.85;32.83;;;;;;;-0.77;86.19;96028.61;1788519;79;21078;-81
2021/12/07 07:57:14;;;;;;;62.05;32.30;;;;;;;-0.73;86.26;96028.23;1795307;79;21113;-81
2021/12/07 07:59:40;;;;;;;59.60;32.40;;;;;;;-0.64;86.33;96032.63;1806562;79;21049;-81
2021/12/07 08:02:07;;;;;;;56.58;33.35;;;;;;;-0.64;86.15;96027.52;1797148;79;21422;-81
2021/12/07 08:04:33;;;;;;;57.43;30.60;;;;;;;-0.61;86.01;96031.56;1798231;79;21075;-81
2021/12/07 08:06:59;;;;;;;59.27;33.05;;;;;;;-0.66;85.87;96029.36;1803496;78;21402;-81
2021/12/07 08:09:25;;;;;;;59.98;32.10;;;;;;;-0.65;85.74;96026.38;1800962;79;21071;-81
2021/12/07 08:11:50;;;;;;;64.70;33.08;;;;;;;-0.59;86.08;96025.06;1796048;79;21110;-81
2021/12/07 08:14:17;;;;;;;54.35;31.52;;;;;;;-0.63;85.84;96024.50;1781178;79;21003;-81
2021/12/07 08:16:44;;;;;;;60.30;31.75;;;;;;;-0.68;85.71;96027.86;1799518;79;21023;-81
2021/12/07 08:19:10;;;;;;;56.15;32.63;;;;;;;-0.68;85.90;96027.86;1780277;80;20982;-81
2021/12/07 08:21:36;;;;;;;56.25;30.05;;;;;;;-0.68;86.06;96025.31;1788640;79;21318;-81
2021/12/07 08:24:03;;;;;;;56.18;33.55;;;;;;;-0.63;86.11;96025.78;1796597;79;21032;-81
2021/12/07 08:26:29;;;;;;;45.75;25.90;;;;;;;-0.55;86.29;96025.97;1792010;79;21330;-81
2021/12/07 08:28:56;;;;;;;51.63;31.05;;;;;;;-0.50;86.01;96028.14;1792686;79;20989;-81
2021/12/07 08:31:23;;;;;;;57.40;29.77;;;;;;;-0.57;85.79;96024.47;1783736;79;20994;-81
2021/12/07 08:33:49;;;;;;;61.10;32.08;;;;;;;-0.56;85.78;96021.80;1780134;79;21013;-81
2021/12/07 08:36:15;;;;;;;55.92;31.25;;;;;;;-0.55;85.82;96027.24;1792734;79;21431;-82
2021/12/07 08:38:40;;;;;;;54.08;29.30;;;;;;;-0.58;85.79;96026.69;1789602;79;20995;-81
2021/12/07 08:41:06;;;;;;;56.60;31.68;;;;;;;-0.56;85.87;96029.92;1795834;79;21398;-81
2021/12/07 08:43:33;;;;;;;58.90;31.57;;;;;;;-0.57;85.80;96034.68;1786976;79;21072;-81
2021/12/07 08:46:00;;;;;;;59.30;32.80;;;;;;;-0.61;85.82;96031.56;1788480;79;21073;-81
2021/12/07 08:48:26;;;;;;;58.33;32.30;;;;;;;-0.69;85.61;96037.26;1793703;79;21082;-81
2021/12/07 08:50:53;;;;;;;57.75;31.90;;;;;;;-0.64;86.16;96044.58;1788409;78;21114;-81
2021/12/07 08:53:19;;;;;;;59.13;33.10;;;;;;;-0.58;86.31;96042.80;1785808;79;21405;-81
2021/12/07 09:01:18;;;;;;;68.30;34.13;;;;;;;-0.64;85.70;96042.83;1789829;79;21058;-81
2021/12/07 09:03:44;;;;;;;58.25;33.95;;;;;;;-0.61;85.99;96047.69;1796962;79;21066;-81
2021/12/07 09:06:10;;;;;;;51.98;29.00;;;;;;;-0.54;86.33;96049.28;1794036;79;21042;-81
2021/12/07 09:08:36;;;;;;;50.38;28.92;;;;;;;-0.58;85.94;96049.19;1801575;79;21079;-82
2021/12/07 09:11:03;;;;;;;60.90;34.88;;;;;;;-0.62;85.92;96043.98;1796269;78;21076;-81
2021/12/07 09:13:29;;;;;;;45.20;26.57;;;;;;;-0.70;85.95;96039.47;1785798;79;21338;-81
2021/12/07 09:15:56;;;;;;;61.70;34.55;;;;;;;-0.77;86.03;96033.70;1780627;79;21042;-81
2021/12/07 09:18:22;;;;;;;56.02;31.97;;;;;;;-0.84;86.03;96034.63;1793818;79;20991;-81
2021/12/07 09:20:49;;;;;;;56.95;32.05;;;;;;;-0.76;86.46;96032.78;1794601;79;21044;-81
2021/12/07 09:23:15;;;;;;;55.08;30.90;;;;;;;-0.69;86.60;96027.52;1792994;79;20989;-81
2021/12/07 09:25:41;;;;;;;60.85;32.58;;;;;;;-0.66;86.53;96023.45;1797849;79;21042;-81
2021/12/07 09:28:09;;;;;;;56.80;33.23;;;;;;;-0.70;86.36;96024.16;1781913;79;20975;-81
2021/12/07 09:30:34;;;;;;;60.58;34.90;;;;;;;-0.70;86.42;96026.71;1787704;80;21007;-81
2021/12/07 09:33:00;;;;;;;57.60;31.90;;;;;;;-0.72;86.37;96031.13;1788246;79;21405;-81
2021/12/07 09:35:26;;;;;;;59.85;35.63;;;;;;;-0.76;86.42;96029.76;1799264;79;20966;-81
2021/12/07 09:37:52;;;;;;;58.00;32.35;;;;;;;-0.74;86.64;96032.99;1801962;79;20998;-81
2021/12/07 09:40:20;;;;;;;59.05;34.85;;;;;;;-0.68;86.74;96034.24;1801935;79;22136;-81
2021/12/07 09:42:46;;;;;;;66.42;37.28;;;;;;;-0.70;86.66;96034.36;1799905;78;21036;-81
2021/12/07 09:45:14;;;;;;;69.50;38.50;;;;;;;-0.69;86.77;96035.17;1786420;79;21066;-81
2021/12/07 09:47:39;;;;;;;68.90;36.98;;;;;;;-0.72;86.71;96031.13;1806681;79;20992;-81
2021/12/07 09:50:07;;;;;;;64.70;35.92;;;;;;;-0.65;87.02;96028.92;1786670;79;21303;-81
2021/12/07 09:52:32;;;;;;;68.47;38.23;;;;;;;-0.58;87.00;96029.23;1788091;79;21034;-81
2021/12/07 09:54:58;;;;;;;60.50;37.15;;;;;;;-0.62;86.90;96026.93;1797391;79;21451;-81
2021/12/07 09:57:24;;;;;;;62.90;35.10;;;;;;;-0.64;86.87;96026.71;1795871;79;21071;-81
2021/12/07 09:59:50;;;;;;;62.70;37.78;;;;;;;-0.69;86.73;96024.97;1793368;78;21086;-81
2021/12/07 10:02:15;;;;;;;38.88;24.23;;;;;;;-0.71;87.01;96023.01;1781045;79;21060;-81
2021/12/07 10:04:41;;;;;;;64.45;38.08;;;;;;;-0.75;87.38;96023.72;1793686;79;21114;-81
2021/12/07 10:07:10;;;;;;;55.28;33.18;;;;;;;-0.77;87.23;96020.48;1792015;79;21026;-81
2021/12/07 10:09:36;;;;;;;65.65;37.05;;;;;;;-0.74;87.70;96017.69;1796884;79;21342;-81
2021/12/07 10:12:04;;;;;;;67.40;39.35;;;;;;;-0.73;87.57;96019.77;1780761;80;21408;-81
2021/12/07 10:14:39;;;;;;;69.17;39.95;;;;;;;-0.67;87.63;96017.53;1785981;79;21035;-81
2021/12/07 10:17:05;;;;;;;59.40;33.92;;;;;;;-0.57;87.78;96021.45;1793398;79;21015;-81
2021/12/07 10:19:35;;;;;;;56.05;31.25;;;;;;;-0.48;87.68;96020.73;1795992;79;21018;-81
2021/12/07 10:22:06;;;;;;;58.83;32.60;;;;;;;-0.44;87.44;96021.30;1786318;79;21027;-82
2021/12/07 10:24:38;;;;;;;47.62;30.30;;;;;;;-0.37;87.49;96020.66;1811001;79;21053;-81
2021/12/07 10:27:04;;;;;;;50.90;30.85;;;;;;;-0.32;87.20;96024.14;1801419;79;20968;-82
2021/12/07 10:29:29;;;;;;;48.02;28.77;;;;;;;-0.37;86.98;96027.52;1789324;79;21330;-82
2021/12/07 10:32:01;;;;;;;51.23;30.55;;;;;;;-0.37;86.97;96022.41;1789436;79;21003;-82
2021/12/07 10:34:34;;;;;;;;;;;;;;;-0.34;87.08;96022.16;1796583;79;21015;-82
2021/12/07 10:37:16;;;;;;;46.28;28.10;;;;;;;-0.30;87.02;96018.45;1798945;79;20102;-82
2021/12/07 10:39:55;;;;;;;39.00;22.03;;;;;;;-0.29;86.63;96023.89;1799622;79;21015;-81
2021/12/07 10:42:27;;;;;;;46.80;28.00;;;;;;;-0.29;86.63;96023.89;1800538;79;21834;-82
2021/12/07 10:44:53;;;;;;;41.65;24.85;;;;;;;-0.26;86.96;96026.66;1790497;79;21031;-82
2021/12/07 10:47:22;;;;;;;44.90;27.22;;;;;;;-0.23;86.84;96023.86;1804792;79;20997;-82
2021/12/07 10:49:51;;;;;;;47.08;27.07;;;;;;;-0.23;86.57;96031.05;1790847;79;20986;-82
2021/12/07 10:52:36;;;;;;;42.73;26.60;;;;;;;-0.21;86.54;96029.17;1792859;79;21107;-82
2021/12/07 10:55:18;;;;;;;43.78;25.62;;;;;;;-0.21;86.58;96031.73;1796799;79;21040;-82
2021/12/07 10:58:03;;;;;;;38.42;24.52;;;;;;;-0.19;86.33;96027.30;1796791;79;20984;-82
2021/12/07 11:00:33;;;;;;;44.45;26.68;;;;;;;-0.19;86.22;96029.05;1797849;79;21007;-82
2021/12/07 11:03:08;;;;;;;39.27;25.20;;;;;;;-0.17;86.39;96031.01;1786566;79;21342;-82
2021/12/07 11:05:51;;;;;;;40.28;25.30;;;;;;;-0.18;86.29;96025.56;1789063;79;21062;-82
2021/12/07 11:08:19;;;;;;;46.20;26.82;;;;;;;-0.15;86.42;96031.25;1795784;79;20988;-82
2021/12/07 11:10:48;;;;;;;41.70;24.87;;;;;;;-0.13;86.19;96026.83;1787577;79;21046;-81
2021/12/07 11:13:23;;;;;;;43.48;25.80;;;;;;;-0.14;86.11;96026.95;1787367;79;21002;-81
2021/12/07 11:15:59;;;;;;;40.67;22.42;;;;;;;-0.17;86.03;96024.63;1795785;79;21443;-82
2021/12/07 11:18:33;;;;;;;47.00;27.07;;;;;;;-0.14;86.08;96019.30;1802759;79;21103;-81
2021/12/07 11:21:09;;;;;;;46.37;27.90;;;;;;;-0.23;85.90;96021.30;1796843;79;21478;-82
2021/12/07 11:23:42;;;;;;;43.38;23.57;;;;;;;-0.22;86.24;96027.56;1783649;78;21141;-82
2021/12/07 11:31:52;;;;;;;45.83;26.52;;;;;;;-0.17;86.38;96023.34;1792323;79;21035;-82
2021/12/07 11:34:27;;;;;;;46.33;27.45;;;;;;;-0.16;86.32;96028.36;1788847;79;21008;-82
2021/12/07 11:37:03;;;;;;;45.50;25.88;;;;;;;-0.15;86.44;96020.23;1790209;79;20975;-82
2021/12/07 11:39:53;;;;;;;45.85;28.55;;;;;;;-0.09;86.43;96018.44;1788384;79;21013;-82
2021/12/07 11:42:28;;;;;;;49.48;29.75;;;;;;;-0.07;86.25;96024.23;1803215;78;21049;-82
2021/12/07 11:44:58;;;;;;;52.83;30.32;;;;;;;-0.14;85.91;96023.93;1786927;79;21000;-82
2021/12/07 11:47:29;;;;;;;54.53;31.23;;;;;;;-0.16;86.02;96021.16;1786124;79;20988;-81
2021/12/07 11:49:56;;;;;;;51.40;29.65;;;;;;;-0.12;86.33;96025.08;1804509;79;21011;-82
2021/12/07 11:52:22;;;;;;;45.98;26.97;;;;;;;-0.01;86.61;96028.83;1783348;79;21420;-81
2021/12/07 11:54:48;;;;;;;46.35;27.15;;;;;;;0.05;86.30;96031.37;1798691;79;21047;-81
2021/12/07 11:57:16;;;;;;;38.80;25.30;;;;;;;0.05;85.93;96030.91;1802543;79;21446;-81
2021/12/07 11:59:42;;;;;;;43.50;24.12;;;;;;;0.04;85.75;96029.28;1805489;79;21051;-82
2021/12/07 12:02:08;;;;;;;34.78;21.65;;;;;;;-0.01;85.67;96034.74;1805604;79;21802;-82
2021/12/07 12:04:34;;;;;;;37.65;22.22;;;;;;;0.02;85.78;96030.34;1802246;79;21036;-82
2021/12/07 12:07:00;;;;;;;40.15;24.00;;;;;;;-0.05;85.26;96032.11;1802061;79;21024;-82
2021/12/07 12:09:26;;;;;;;40.45;22.82;;;;;;;-0.11;85.41;96022.87;1791354;79;20999;-81
2021/12/07 12:12:35;;;;;;;41.45;22.90;;;;;;;-0.11;85.69;96021.13;1799943;79;20998;-82
2021/12/07 12:15:39;;;;;;;46.33;26.35;;;;;;;-0.04;85.71;96023.51;1795591;79;21625;-82
2021/12/07 12:18:54;;;;;;;37.98;20.48;;;;;;;0.01;85.64;96028.73;1804525;78;21011;-81
2021/12/07 12:21:37;;;;;;;48.73;27.77;;;;;;;-0.01;85.12;96021.16;1780757;78;21005;-81
2021/12/07 12:24:09;;;;;;;;;;;;;;;-0.06;85.29;96027.94;1792433;78;21023;-82
2021/12/07 12:26:36;;;;;;;49.40;29.95;;;;;;;-0.02;85.44;96030.58;1792449;79;20090;-82
2021/12/07 12:29:22;;;;;;;47.98;28.02;;;;;;;-0.06;85.33;96032.23;1794614;79;21366;-82
2021/12/07 12:31:55;;;;;;;53.98;28.52;;;;;;;-0.03;85.39;96035.34;1798590;78;21431;-82
2021/12/07 12:34:26;;;;;;;;;;;;;;;-0.09;85.24;96032.48;1792108;79;20971;-82
2021/12/07 12:37:09;;;;;;;50.73;28.00;;;;;;;-0.05;85.70;96037.22;1783584;79;20391;-81
2021/12/07 12:39:57;;;;;;;;;;;;;;;-0.08;85.29;96036.66;1805031;79;21413;-81
2021/12/07 12:42:41;;;;;;;49.73;27.93;;;;;;;-0.06;85.37;96036.88;1788887;79;20117;-81
2021/12/07 12:45:22;;;;;;;52.55;27.52;;;;;;;-0.05;85.22;96038.49;1788613;78;21058;-81
2021/12/07 12:48:11;;;;;;;55.03;29.65;;;;;;;-0.07;85.17;96042.92;1788484;78;21056;-81
2021/12/07 12:50:49;;;;;;;51.58;29.65;;;;;;;-0.03;85.33;96048.11;1801435;78;21003;-81
2021/12/07 12:53:22;;;;;;;58.17;31.00;;;;;;;0.00;85.17;96041.97;1786476;79;20948;-81
2021/12/07 12:55:52;;;;;;;52.60;28.52;;;;;;;-0.04;85.07;96040.11;1792370;79;20979;-81
2021/12/07 12:58:33;;;;;;;52.38;29.27;;;;;;;-0.06;84.91;96039.89;1789993;79;21107;-81
2021/12/07 13:01:17;;;;;;;38.60;24.10;;;;;;;-0.07;85.09;96048.03;1799560;79;20980;-81
2021/12/07 13:04:15;;;;;;;45.25;28.02;;;;;;;-0.08;84.95;96050.70;1784480;79;21366;-82
2021/12/07 13:06:52;;;;;;;49.15;27.22;;;;;;;-0.10;85.06;96050.02;1798504;79;21056;-81
2021/12/07 13:09:24;;;;;;;48.17;26.10;;;;;;;-0.18;84.92;96054.45;1777634;79;21409;-81
2021/12/07 13:12:03;;;;;;;51.83;29.27;;;;;;;-0.14;85.22;96049.94;1792116;79;20991;-81
2021/12/07 13:14:39;;;;;;;53.90;30.23;;;;;;;-0.12;85.27;96057.00;1786863;79;20969;-81
2021/12/07 13:17:25;;;;;;;48.85;29.35;;;;;;;-0.19;85.08;96053.30;1796148;79;21111;-81